Time;durP1;ratioP1;P1;durP2;ratioP2;P2;SDS_P1;SDS_P2;PMS_P1;PMS_P2;Temp;Humidity;BMP_temperature;BMP_pressure;BME280_temperature;BME280_humidity;BME280_pressure;Samples;Min_cycle;Max_cycle;Signal;HPM_P1;HPM_P2
2023/09/06 00:02:05;;;;;;;4.43;4.00;;;;;;;18.01;100.00;95099.13;5052195;28;20203;-45
2023/09/06 00:04:33;;;;;;;4.53;4.13;;;;;;;17.99;100.00;95103.66;5052683;28;20559;-45
2023/09/06 00:07:00;;;;;;;4.30;3.90;;;;;;;17.94;100.00;95106.78;5052283;28;20257;-44
2023/09/06 00:09:27;;;;;;;6.73;4.30;;;;;;;17.89;100.00;95090.97;5052485;28;20199;-44
2023/09/06 00:11:54;;;;;;;4.60;4.20;;;;;;;17.74;100.00;95080.53;5052301;28;20616;-43
2023/09/06 00:14:21;;;;;;;4.43;3.80;;;;;;;17.83;100.00;95096.81;5051991;28;20195;-43
2023/09/06 00:16:47;;;;;;;6.23;4.27;;;;;;;17.80;100.00;95090.22;5052041;28;20188;-44
2023/09/06 00:19:14;;;;;;;5.70;4.00;;;;;;;17.76;100.00;95082.97;5052143;28;20253;-44
2023/09/06 00:21:47;;;;;;;4.57;4.17;;;;;;;17.80;100.00;95097.97;5052156;28;20287;-46
2023/09/06 00:24:15;;;;;;;4.30;4.00;;;;;;;17.57;100.00;95066.06;5052177;28;20693;-44
2023/09/06 00:26:43;;;;;;;5.70;4.63;;;;;;;17.67;100.00;95084.78;5052349;28;20198;-42
2023/09/06 00:29:10;;;;;;;5.57;4.13;;;;;;;17.75;100.00;95102.06;5052063;28;20372;-45
2023/09/06 00:31:37;;;;;;;5.80;4.70;;;;;;;17.76;100.00;95094.13;5052192;28;20237;-44
2023/09/06 00:34:03;;;;;;;4.97;4.57;;;;;;;17.74;100.00;95092.69;5051738;28;20271;-44
2023/09/06 00:36:32;;;;;;;4.80;4.40;;;;;;;17.69;100.00;95084.59;5051976;28;20187;-45
2023/09/06 00:39:01;;;;;;;5.00;4.50;;;;;;;17.73;100.00;95089.25;5052067;28;20341;-45
2023/09/06 00:41:28;;;;;;;5.80;4.30;;;;;;;17.55;100.00;95068.84;5052006;28;20199;-44
2023/09/06 00:43:56;;;;;;;5.07;4.00;;;;;;;17.67;100.00;95086.56;5051525;28;20195;-44
2023/09/06 00:46:23;;;;;;;4.90;4.40;;;;;;;17.70;100.00;95086.19;5051694;28;20590;-43
2023/09/06 00:48:51;;;;;;;5.87;4.47;;;;;;;17.70;100.00;95087.03;5051486;28;20658;-44
2023/09/06 00:51:20;;;;;;;6.00;4.67;;;;;;;17.71;100.00;95082.66;5051808;28;20322;-44
2023/09/06 00:53:48;;;;;;;5.03;4.53;;;;;;;17.69;100.00;95079.44;5051638;28;20184;-45
2023/09/06 00:56:17;;;;;;;6.80;4.27;;;;;;;17.70;100.00;95079.28;5051776;28;20626;-46
2023/09/06 00:58:44;;;;;;;6.00;4.43;;;;;;;17.68;100.00;95067.47;5051531;28;20274;-43
2023/09/06 01:01:11;;;;;;;5.87;3.97;;;;;;;17.70;100.00;95073.28;5051473;28;20643;-43
2023/09/06 01:03:40;;;;;;;7.63;4.00;;;;;;;17.71;100.00;95070.53;5051581;28;20256;-42
2023/09/06 01:06:14;;;;;;;4.60;4.20;;;;;;;17.73;100.00;95070.34;5051385;28;20210;-45
2023/09/06 01:08:46;;;;;;;6.23;5.63;;;;;;;17.74;100.00;95070.19;5051218;28;20191;-45
2023/09/06 01:11:20;;;;;;;6.27;4.63;;;;;;;17.75;100.00;95071.03;5051016;28;20262;-43
2023/09/06 01:13:49;;;;;;;6.20;4.33;;;;;;;17.77;100.00;95074.22;5051241;28;20623;-44
2023/09/06 01:16:21;;;;;;;6.27;4.73;;;;;;;17.76;100.00;95072.63;5051546;28;20273;-46
2023/09/06 01:18:47;;;;;;;4.80;4.40;;;;;;;17.78;100.00;95068.06;5051208;28;20222;-43
2023/09/06 01:21:18;;;;;;;6.73;4.20;;;;;;;17.80;100.00;95058.38;5051039;28;20570;-43
2023/09/06 01:23:48;;;;;;;5.17;4.60;;;;;;;17.82;100.00;95073.72;5051149;28;20179;-44
2023/09/06 01:26:16;;;;;;;4.63;4.33;;;;;;;17.83;100.00;95063.19;5051211;28;20253;-43
2023/09/06 01:28:43;;;;;;;5.80;4.50;;;;;;;17.85;100.00;95068.19;5050842;28;20646;-43
2023/09/06 01:31:10;;;;;;;5.20;4.80;;;;;;;17.83;100.00;95058.00;5051099;28;20698;-43
2023/09/06 01:33:37;;;;;;;6.13;4.90;;;;;;;17.90;100.00;95063.31;5050954;28;20581;-43
2023/09/06 01:36:04;;;;;;;8.23;4.80;;;;;;;17.85;100.00;95065.63;5050884;28;20705;-44
2023/09/06 01:38:32;;;;;;;5.97;4.67;;;;;;;17.92;100.00;95077.69;5050637;28;20290;-44
2023/09/06 01:41:01;;;;;;;4.43;4.00;;;;;;;17.88;100.00;95071.25;5050725;28;20224;-46
2023/09/06 01:43:28;;;;;;;7.27;4.30;;;;;;;17.91;100.00;95072.66;5050940;28;20240;-44
2023/09/06 01:45:55;;;;;;;6.47;4.57;;;;;;;17.90;100.00;95065.91;5050797;28;20201;-44
2023/09/06 01:48:22;;;;;;;5.77;3.97;;;;;;;17.91;100.00;95062.31;5050695;28;20198;-44
2023/09/06 01:50:49;;;;;;;4.53;4.13;;;;;;;17.71;100.00;95030.94;5050158;28;20230;-43
2023/09/06 01:53:16;;;;;;;5.37;4.40;;;;;;;17.92;100.00;95062.16;5050517;28;20560;-44
2023/09/06 01:55:44;;;;;;;5.07;4.23;;;;;;;17.93;100.00;95045.66;5050585;28;20218;-44
2023/09/06 01:58:13;;;;;;;6.37;4.43;;;;;;;17.90;100.00;95058.13;5049383;28;20198;-44
2023/09/06 02:00:40;;;;;;;6.83;5.07;;;;;;;17.78;100.00;95048.19;5050155;28;20667;-44
2023/09/06 02:03:09;;;;;;;5.20;4.67;;;;;;;17.87;100.00;95048.91;5050556;28;20191;-44
2023/09/06 02:05:36;;;;;;;9.60;5.20;;;;;;;17.86;100.00;95059.47;5050334;28;20195;-43
2023/09/06 02:08:05;;;;;;;6.33;4.73;;;;;;;17.86;100.00;95057.66;5050238;28;20237;-45
2023/09/06 02:10:31;;;;;;;6.93;4.57;;;;;;;17.85;100.00;95063.84;5050386;28;20245;-42
2023/09/06 02:12:58;;;;;;;8.70;4.20;;;;;;;17.80;100.00;95059.19;5050312;28;20234;-43
2023/09/06 02:15:29;;;;;;;6.57;4.90;;;;;;;17.79;100.00;95056.78;5050366;28;20298;-45
2023/09/06 02:17:56;;;;;;;6.57;4.50;;;;;;;17.79;100.00;95057.56;5050257;28;20252;-43
2023/09/06 02:20:24;;;;;;;4.67;4.17;;;;;;;17.85;100.00;95055.28;5050203;28;20187;-42
2023/09/06 02:22:52;;;;;;;5.23;4.53;;;;;;;17.84;100.00;95066.59;5049618;28;20802;-43
2023/09/06 02:25:21;;;;;;;4.67;4.27;;;;;;;17.84;100.00;95062.22;5050238;28;20274;-43
2023/09/06 02:27:48;;;;;;;6.27;5.07;;;;;;;17.79;100.00;95054.19;5049996;28;20191;-42
2023/09/06 02:30:15;;;;;;;4.87;4.27;;;;;;;17.65;100.00;95039.38;5050004;28;20245;-42
2023/09/06 02:32:44;;;;;;;8.67;4.57;;;;;;;17.82;100.00;95064.16;5049477;28;20706;-43
2023/09/06 02:35:11;;;;;;;5.23;4.73;;;;;;;17.82;100.00;95063.38;5049832;28;20198;-42
2023/09/06 02:37:37;;;;;;;6.90;4.70;;;;;;;17.72;100.00;95048.06;5049392;28;20249;-43
2023/09/06 02:40:10;;;;;;;4.80;4.40;;;;;;;17.79;100.00;95062.75;5049815;28;20197;-43
2023/09/06 02:42:38;;;;;;;4.90;4.50;;;;;;;17.77;100.00;95064.69;5049339;28;20252;-43
2023/09/06 02:45:09;;;;;;;5.43;4.80;;;;;;;17.73;100.00;95065.97;5048290;28;20259;-44
2023/09/06 02:47:38;;;;;;;5.03;4.53;;;;;;;17.71;100.00;95070.53;5049578;28;20636;-42
2023/09/06 02:50:07;;;;;;;5.27;4.13;;;;;;;17.68;100.00;95059.72;5049517;28;20194;-42
2023/09/06 02:52:35;;;;;;;8.13;5.10;;;;;;;17.71;100.00;95049.84;5049488;28;20222;-44
2023/09/06 02:55:05;;;;;;;6.77;4.63;;;;;;;17.67;99.76;95052.94;5049544;28;20190;-43
2023/09/06 02:57:34;;;;;;;5.60;4.43;;;;;;;17.71;99.78;95056.78;5049525;28;20197;-43
2023/09/06 03:00:18;;;;;;;6.77;4.57;;;;;;;17.70;99.82;95058.59;5049328;28;20188;-44
2023/09/06 03:02:45;;;;;;;10.33;5.13;;;;;;;17.65;99.95;95073.00;5049108;28;20191;-44
2023/09/06 03:05:17;;;;;;;4.97;4.47;;;;;;;17.64;99.91;95063.63;5049631;28;20187;-41
2023/09/06 03:07:53;;;;;;;5.83;5.27;;;;;;;17.61;99.71;95067.34;5049355;28;20270;-42
2023/09/06 03:10:23;;;;;;;5.80;4.83;;;;;;;17.60;99.72;95070.91;5049703;28;20612;-44
2023/09/06 03:12:55;;;;;;;6.70;4.90;;;;;;;17.60;99.75;95073.50;5049294;28;20262;-42
2023/09/06 03:15:22;;;;;;;7.63;5.50;;;;;;;17.59;99.68;95077.06;5049051;28;20211;-43
2023/09/06 03:17:50;;;;;;;5.73;5.10;;;;;;;17.55;100.00;95068.84;5049097;28;20282;-44
2023/09/06 03:20:31;;;;;;;6.23;5.10;;;;;;;17.58;99.99;95072.88;5049291;28;20187;-45
2023/09/06 03:22:58;;;;;;;10.00;4.93;;;;;;;17.59;100.00;95071.09;5049206;28;20199;-45
2023/09/06 03:25:26;;;;;;;9.50;4.70;;;;;;;17.60;99.76;95068.34;5049359;28;20218;-44
2023/09/06 03:28:00;;;;;;;5.73;4.40;;;;;;;17.59;99.69;95063.34;5048876;28;20191;-45
2023/09/06 03:30:30;;;;;;;7.67;5.30;;;;;;;17.62;99.52;95076.75;5049082;28;20305;-44
2023/09/06 03:32:57;;;;;;;6.27;4.67;;;;;;;17.65;99.13;95073.78;5049282;28;20215;-44
2023/09/06 03:35:25;;;;;;;5.80;4.93;;;;;;;17.66;99.04;95080.59;5049381;28;20268;-45
2023/09/06 03:37:52;;;;;;;6.50;4.87;;;;;;;17.68;98.99;95072.66;5048809;28;20198;-43
2023/09/06 03:40:28;;;;;;;5.37;4.87;;;;;;;17.70;98.85;95073.28;5049062;28;20198;-44
2023/09/06 03:42:55;;;;;;;6.20;4.70;;;;;;;17.72;98.54;95079.09;5048832;28;20276;-45
2023/09/06 03:45:24;;;;;;;6.87;5.00;;;;;;;17.64;98.42;95063.63;5049114;28;20268;-45
2023/09/06 03:47:52;;;;;;;6.40;5.10;;;;;;;17.69;98.30;95069.88;5048750;28;20202;-46
2023/09/06 03:50:21;;;;;;;6.50;4.70;;;;;;;17.58;98.28;95052.19;5048979;28;20190;-42
2023/09/06 03:52:50;;;;;;;5.30;4.80;;;;;;;17.73;97.95;95078.13;5048687;28;20210;-44
2023/09/06 03:55:17;;;;;;;7.00;5.13;;;;;;;17.74;97.68;95082.31;5048981;28;20207;-46
2023/09/06 03:57:44;;;;;;;6.03;5.43;;;;;;;17.74;97.46;95083.13;5048733;28;20187;-44
2023/09/06 04:00:24;;;;;;;7.50;4.90;;;;;;;17.76;97.33;95085.56;5049115;28;20195;-44
2023/09/06 04:02:53;;;;;;;4.80;4.40;;;;;;;17.80;97.37;95092.00;5048606;28;20241;-43
2023/09/06 04:05:23;;;;;;;4.93;4.40;;;;;;;17.80;97.41;95084.25;5048958;28;20694;-43
2023/09/06 04:07:52;;;;;;;5.17;4.67;;;;;;;17.88;97.36;95096.34;5048375;28;20282;-44
2023/09/06 04:10:21;;;;;;;5.93;4.70;;;;;;;17.92;96.92;95097.56;5049244;28;20278;-46
2023/09/06 04:12:50;;;;;;;7.73;6.20;;;;;;;17.89;97.04;95092.75;5048704;28;20296;-44
2023/09/06 04:15:21;;;;;;;6.70;5.17;;;;;;;17.93;96.54;95094.03;5049061;28;20187;-44
2023/09/06 04:17:50;;;;;;;8.13;6.17;;;;;;;17.97;96.54;95103.06;5048669;28;20289;-45
2023/09/06 04:20:20;;;;;;;7.03;5.30;;;;;;;17.93;96.44;95092.25;5048434;28;20187;-43
2023/09/06 04:22:48;;;;;;;5.77;4.80;;;;;;;17.94;95.84;95090.44;5050964;28;20621;-45
2023/09/06 04:25:18;;;;;;;8.13;4.70;;;;;;;17.96;95.77;95094.50;5052632;28;20183;-44
2023/09/06 04:27:46;;;;;;;11.33;6.00;;;;;;;18.08;95.57;95109.59;5052000;28;20287;-45
2023/09/06 04:30:15;;;;;;;6.23;4.67;;;;;;;18.11;95.17;95111.84;5052188;28;20658;-44
2023/09/06 04:32:45;;;;;;;6.13;5.23;;;;;;;18.14;95.08;95108.91;5052026;28;20218;-44
2023/09/06 04:35:12;;;;;;;5.57;5.07;;;;;;;18.19;94.88;95110.00;5052067;28;20221;-45
2023/09/06 04:37:39;;;;;;;5.70;5.20;;;;;;;18.16;94.73;95101.75;5052371;28;20219;-44
2023/09/06 04:40:11;;;;;;;8.00;5.23;;;;;;;18.24;94.52;95112.84;5052048;28;20187;-44
2023/09/06 04:42:40;;;;;;;10.30;5.13;;;;;;;18.25;94.17;95111.88;5052113;28;20191;-42
2023/09/06 04:45:08;;;;;;;6.30;5.57;;;;;;;18.29;93.98;95114.94;5051620;28;20245;-44
2023/09/06 04:47:35;;;;;;;12.80;5.60;;;;;;;18.34;94.04;95112.59;5051722;28;20187;-45
2023/09/06 04:50:04;;;;;;;6.57;5.17;;;;;;;18.36;93.61;95108.06;5051892;28;20221;-44
2023/09/06 04:52:37;;;;;;;7.00;5.17;;;;;;;18.50;93.70;95109.06;5052137;28;20225;-44
2023/09/06 04:55:06;;;;;;;6.70;5.30;;;;;;;18.48;93.62;95116.22;5051579;28;20190;-45
2023/09/06 04:57:33;;;;;;;5.33;4.83;;;;;;;18.50;93.40;95111.66;5051907;28;20202;-45
2023/09/06 05:00:03;;;;;;;8.80;5.17;;;;;;;18.52;92.87;95114.88;5051813;28;20210;-45
2023/09/06 05:02:29;;;;;;;5.30;4.80;;;;;;;18.54;92.36;95115.50;5051427;28;20191;-45
2023/09/06 05:04:56;;;;;;;11.07;5.23;;;;;;;18.59;92.61;95123.56;5051207;28;20191;-44
2023/09/06 05:07:23;;;;;;;6.27;5.20;;;;;;;18.64;92.48;95121.25;5051670;28;20561;-43
2023/09/06 05:09:53;;;;;;;7.97;5.17;;;;;;;18.70;92.47;95119.78;5051262;28;20376;-44
2023/09/06 05:12:21;;;;;;;6.63;5.23;;;;;;;18.72;91.92;95121.19;5051687;28;20222;-44
2023/09/06 05:14:49;;;;;;;8.73;5.20;;;;;;;18.74;91.98;95123.63;5051354;28;20674;-45
2023/09/06 05:17:17;;;;;;;6.20;5.10;;;;;;;18.76;91.81;95113.88;5051852;28;20191;-42
2023/09/06 05:19:43;;;;;;;5.47;4.97;;;;;;;18.79;91.54;95118.72;5051240;28;20566;-45
2023/09/06 05:22:10;;;;;;;8.00;5.53;;;;;;;18.72;91.05;95107.44;5051340;28;20199;-45
2023/09/06 05:24:37;;;;;;;7.30;4.87;;;;;;;18.83;90.40;95129.53;5051219;28;20195;-44
2023/09/06 05:27:04;;;;;;;6.27;5.37;;;;;;;18.90;90.27;95126.03;5051529;28;20682;-44
2023/09/06 05:29:32;;;;;;;6.57;5.43;;;;;;;18.96;89.82;95132.31;5051182;28;20222;-44
2023/09/06 05:31:59;;;;;;;8.10;6.07;;;;;;;19.02;89.23;95140.16;5051218;28;20211;-43
2023/09/06 05:34:29;;;;;;;6.27;5.67;;;;;;;19.07;88.83;95136.22;5050353;28;20261;-43
2023/09/06 05:36:56;;;;;;;5.20;4.70;;;;;;;19.08;88.74;95130.84;5051387;28;20222;-44
2023/09/06 05:39:23;;;;;;;7.93;5.10;;;;;;;19.15;88.55;95134.34;5051002;28;20543;-44
2023/09/06 05:41:50;;;;;;;5.50;5.00;;;;;;;19.17;87.89;95132.41;5050838;28;20225;-44
2023/09/06 05:44:18;;;;;;;7.63;5.03;;;;;;;19.16;87.52;95135.94;5050848;28;20685;-45
2023/09/06 05:46:44;;;;;;;6.10;5.03;;;;;;;19.18;87.26;95134.00;5050676;28;20626;-45
2023/09/06 05:49:11;;;;;;;9.90;5.87;;;;;;;19.24;86.89;95143.63;5051142;28;20183;-45
2023/09/06 05:51:40;;;;;;;5.83;4.83;;;;;;;19.32;86.43;95140.16;5050948;28;20202;-44
2023/09/06 05:54:07;;;;;;;12.57;5.10;;;;;;;19.35;86.37;95137.22;5051092;28;20211;-44
2023/09/06 05:56:34;;;;;;;6.13;4.90;;;;;;;19.41;86.18;95138.25;5050588;28;20214;-46
2023/09/06 05:59:01;;;;;;;7.80;5.80;;;;;;;19.43;85.67;95142.31;5050668;28;20256;-45
2023/09/06 06:01:28;;;;;;;7.22;5.82;;;;;;;19.52;85.53;95145.59;5050341;28;20198;-43
2023/09/06 06:03:54;;;;;;;5.82;5.05;;;;;;;19.57;85.13;95147.63;5050309;28;20199;-42
2023/09/06 06:06:22;;;;;;;5.30;4.80;;;;;;;19.64;84.90;95151.94;5050490;28;20194;-45
2023/09/06 06:08:50;;;;;;;5.63;5.05;;;;;;;19.68;84.32;95147.19;5050372;28;20183;-45
2023/09/06 06:11:17;;;;;;;6.13;4.88;;;;;;;19.79;83.57;95154.50;5050325;28;20206;-44
2023/09/06 06:13:44;;;;;;;5.17;4.53;;;;;;;19.84;83.14;95164.34;5050293;28;20211;-45
2023/09/06 06:16:11;;;;;;;5.70;4.53;;;;;;;19.88;82.47;95157.78;5050597;28;20198;-44
2023/09/06 06:18:38;;;;;;;6.53;5.03;;;;;;;19.44;81.76;95093.81;5050441;28;20198;-46
2023/09/06 06:21:05;;;;;;;7.53;4.75;;;;;;;19.87;81.33;95159.59;5050246;28;20241;-44
2023/09/06 06:23:32;;;;;;;6.17;4.50;;;;;;;19.90;81.16;95163.59;5049770;28;20205;-44
2023/09/06 06:26:01;;;;;;;7.00;4.95;;;;;;;19.99;80.83;95172.88;5050126;28;20187;-46
2023/09/06 06:28:28;;;;;;;5.20;4.70;;;;;;;19.96;80.22;95176.66;5049661;28;20194;-45
2023/09/06 06:30:55;;;;;;;7.55;5.55;;;;;;;19.95;79.82;95171.66;5050195;28;20648;-46
2023/09/06 06:36:44;;;;;;;6.00;4.72;;;;;;;20.05;78.78;95165.16;4988001;28;20294;-43
2023/09/06 06:39:12;;;;;;;9.40;4.72;;;;;;;20.14;77.94;95173.63;4988142;28;20641;-43
2023/09/06 06:41:41;;;;;;;9.20;4.93;;;;;;;20.16;78.00;95168.25;4988081;28;20199;-44
2023/09/06 06:44:08;;;;;;;9.05;5.13;;;;;;;20.33;77.90;95185.19;4988042;28;20301;-44
2023/09/06 06:46:36;;;;;;;6.82;4.50;;;;;;;20.35;77.02;95192.81;4987908;28;20197;-45
2023/09/06 06:49:04;;;;;;;10.27;5.45;;;;;;;20.37;77.12;95198.63;4988371;28;20204;-44
2023/09/06 06:51:35;;;;;;;8.30;4.57;;;;;;;20.46;76.88;95194.91;4988324;28;20204;-45
2023/09/06 06:54:02;;;;;;;4.28;3.90;;;;;;;20.63;76.46;95198.88;4987999;28;20230;-41
2023/09/06 06:56:29;;;;;;;9.85;4.57;;;;;;;20.72;75.60;95189.97;4988165;28;20197;-43
2023/09/06 06:59:00;;;;;;;9.30;4.68;;;;;;;20.88;74.42;95194.09;4987872;28;20603;-46
2023/09/06 07:01:27;;;;;;;5.57;4.22;;;;;;;21.05;73.94;95190.22;4988211;28;20193;-46
2023/09/06 07:03:54;;;;;;;5.45;4.40;;;;;;;21.17;73.05;95190.50;4987975;28;20196;-44
2023/09/06 07:06:21;;;;;;;6.03;4.55;;;;;;;21.07;72.83;95161.44;4987791;28;20196;-44
2023/09/06 07:08:48;;;;;;;9.57;4.75;;;;;;;21.25;72.62;95184.34;4987598;28;20189;-44
2023/09/06 07:11:16;;;;;;;6.63;4.00;;;;;;;21.36;71.81;95189.03;4987790;28;20197;-43
2023/09/06 07:13:43;;;;;;;7.55;4.47;;;;;;;21.35;71.17;95184.81;5035094;28;20230;-43
2023/09/06 07:16:11;;;;;;;4.55;4.15;;;;;;;21.39;70.97;95193.06;5049648;28;20182;-45
2023/09/06 07:18:38;;;;;;;7.07;4.75;;;;;;;21.39;71.15;95191.25;5049023;28;20234;-45
2023/09/06 07:21:05;;;;;;;5.60;5.03;;;;;;;21.34;71.63;95185.03;5049122;28;20278;-44
2023/09/06 07:23:31;;;;;;;6.72;4.90;;;;;;;21.38;72.36;95188.84;5049496;28;20198;-43
2023/09/06 07:25:58;;;;;;;4.93;4.20;;;;;;;21.52;71.50;95198.31;5049562;28;20249;-43
2023/09/06 07:28:25;;;;;;;4.90;3.90;;;;;;;21.67;71.40;95183.34;5049034;28;20191;-44
2023/09/06 07:30:52;;;;;;;11.77;4.80;;;;;;;21.83;70.87;95184.03;5049718;28;20297;-45
2023/09/06 07:33:20;;;;;;;7.55;4.38;;;;;;;21.93;69.24;95185.25;5049425;28;20227;-44
2023/09/06 07:35:47;;;;;;;12.32;4.93;;;;;;;22.05;69.03;95186.28;5049095;28;20190;-46
2023/09/06 07:38:19;;;;;;;4.95;4.43;;;;;;;22.23;69.27;95184.97;5050145;28;20194;-46
2023/09/06 07:40:55;;;;;;;11.32;4.47;;;;;;;22.67;68.10;95160.94;5049811;28;20619;-46
2023/09/06 07:43:22;;;;;;;6.65;4.63;;;;;;;23.34;65.68;95173.91;5049147;28;20304;-44
2023/09/06 07:45:48;;;;;;;6.47;4.20;;;;;;;23.64;63.55;95174.22;5048878;28;20199;-45
2023/09/06 07:48:15;;;;;;;8.23;4.68;;;;;;;23.76;62.15;95168.19;5048979;28;20198;-46
2023/09/06 07:50:43;;;;;;;4.53;3.97;;;;;;;23.81;61.69;95170.16;5049093;28;20671;-46
2023/09/06 07:53:10;;;;;;;6.57;4.55;;;;;;;23.94;62.21;95162.25;5048940;28;20222;-47
2023/09/06 07:55:40;;;;;;;7.55;4.20;;;;;;;24.10;61.26;95150.53;5048902;28;20202;-47
2023/09/06 07:58:08;;;;;;;5.72;4.75;;;;;;;24.43;59.52;95158.16;5051945;28;20194;-46
2023/09/06 08:00:36;;;;;;;6.53;4.82;;;;;;;24.77;58.81;95166.56;5052720;28;20238;-44
2023/09/06 08:03:03;;;;;;;8.45;4.60;;;;;;;24.95;58.16;95171.81;5052576;28;20199;-44
2023/09/06 08:05:32;;;;;;;5.20;3.70;;;;;;;25.12;57.08;95179.97;5052665;28;20188;-45
2023/09/06 08:08:00;;;;;;;6.28;4.57;;;;;;;25.34;56.32;95169.88;5052610;28;20566;-45
2023/09/06 08:10:27;;;;;;;7.55;4.57;;;;;;;25.26;56.66;95154.47;5052367;28;20194;-45
2023/09/06 08:12:54;;;;;;;5.57;4.63;;;;;;;25.27;56.00;95180.41;5052336;28;20229;-44
2023/09/06 08:15:20;;;;;;;6.82;4.80;;;;;;;25.15;56.17;95178.75;5052298;28;20183;-45
2023/09/06 08:17:48;;;;;;;5.97;4.95;;;;;;;24.95;55.80;95190.16;5052338;28;20199;-45
2023/09/06 08:20:15;;;;;;;7.38;4.80;;;;;;;24.69;56.59;95187.75;5052546;28;20187;-44
2023/09/06 08:22:42;;;;;;;6.57;4.88;;;;;;;24.56;56.64;95188.66;5052347;28;20214;-44
2023/09/06 08:25:12;;;;;;;5.70;4.47;;;;;;;24.56;56.93;95183.41;5052365;28;20547;-44
2023/09/06 08:27:39;;;;;;;7.65;4.50;;;;;;;24.64;57.02;95190.22;5052130;28;20195;-44
2023/09/06 08:30:07;;;;;;;6.00;4.30;;;;;;;24.56;57.23;95162.50;5052041;28;20218;-45
2023/09/06 08:32:34;;;;;;;5.18;4.68;;;;;;;24.72;57.13;95169.03;5051902;28;20280;-47
2023/09/06 08:35:01;;;;;;;9.80;4.50;;;;;;;24.99;56.45;95193.13;5052004;28;20187;-45
2023/09/06 08:37:27;;;;;;;9.88;4.65;;;;;;;25.30;55.82;95197.50;5051863;28;20194;-45
2023/09/06 08:39:54;;;;;;;5.07;4.57;;;;;;;25.45;54.46;95190.09;5052136;28;20693;-45
2023/09/06 08:42:24;;;;;;;8.43;5.00;;;;;;;25.54;54.95;95195.84;5033830;28;20568;-44
2023/09/06 08:44:52;;;;;;;5.28;4.05;;;;;;;25.74;54.05;95196.44;5051545;28;20195;-45
2023/09/06 08:47:21;;;;;;;6.03;4.05;;;;;;;25.94;53.42;95187.53;5051659;28;20187;-44
2023/09/06 08:49:49;;;;;;;4.97;4.47;;;;;;;25.89;52.90;95187.41;5052107;28;20183;-44
2023/09/06 08:52:16;;;;;;;5.45;4.00;;;;;;;25.84;53.36;95184.66;5051530;28;20225;-45
2023/09/06 08:54:44;;;;;;;5.07;4.57;;;;;;;25.49;53.32;95125.78;5052204;28;20234;-45
2023/09/06 08:57:13;;;;;;;4.93;4.43;;;;;;;25.91;53.60;95180.16;5051484;28;20195;-45
2023/09/06 08:59:41;;;;;;;8.18;5.25;;;;;;;25.80;53.22;95179.06;5051792;28;20191;-45
2023/09/06 09:02:12;;;;;;;4.43;4.05;;;;;;;25.79;53.70;95189.78;5051581;28;20187;-45
2023/09/06 09:04:41;;;;;;;4.75;4.35;;;;;;;25.67;54.12;95184.44;5051860;28;20195;-46
2023/09/06 09:07:09;;;;;;;4.70;4.30;;;;;;;25.66;54.36;95174.97;5051325;28;20187;-44
2023/09/06 09:09:55;;;;;;;7.75;4.93;;;;;;;25.69;54.35;95183.19;5051529;28;20190;-44
2023/09/06 09:12:24;;;;;;;5.47;4.82;;;;;;;25.71;54.15;95202.09;5051244;28;20191;-46
2023/09/06 09:14:56;;;;;;;6.05;4.43;;;;;;;25.66;53.12;95174.97;5051698;28;20303;-45
2023/09/06 09:17:24;;;;;;;7.35;4.60;;;;;;;25.69;53.83;95185.81;5051341;28;20198;-44
2023/09/06 09:19:51;;;;;;;5.80;4.32;;;;;;;25.62;54.14;95181.66;5051959;28;20195;-44
2023/09/06 09:22:24;;;;;;;7.18;4.47;;;;;;;25.49;54.30;95190.47;5051165;28;20195;-44
2023/09/06 09:24:57;;;;;;;5.22;4.20;;;;;;;25.39;55.01;95179.69;5051191;28;20186;-43
2023/09/06 09:27:24;;;;;;;4.93;4.50;;;;;;;25.13;55.29;95183.38;5050981;28;20252;-46
2023/09/06 09:29:51;;;;;;;5.43;4.68;;;;;;;24.94;55.16;95196.41;5033133;28;20269;-43
2023/09/06 09:32:19;;;;;;;6.32;5.07;;;;;;;24.73;56.23;95194.97;5050900;28;20195;-45
2023/09/06 09:34:46;;;;;;;7.30;4.43;;;;;;;24.64;56.88;95196.25;5051358;28;20249;-45
2023/09/06 09:37:13;;;;;;;7.05;4.90;;;;;;;24.59;57.41;95185.63;5051002;28;20278;-46
2023/09/06 09:39:40;;;;;;;11.95;5.57;;;;;;;24.57;57.24;95194.69;5050922;28;20202;-44
2023/09/06 09:42:10;;;;;;;10.68;5.10;;;;;;;24.49;57.38;95188.72;5050735;28;20210;-43
2023/09/06 09:44:37;;;;;;;6.07;5.45;;;;;;;24.37;57.86;95189.56;5050831;28;20226;-44
2023/09/06 09:47:11;;;;;;;8.23;5.20;;;;;;;24.39;58.40;95188.34;5050777;28;20257;-44
2023/09/06 09:49:41;;;;;;;9.40;5.15;;;;;;;24.46;58.06;95190.94;5050523;28;20272;-42
2023/09/06 09:52:13;;;;;;;10.60;5.47;;;;;;;24.44;57.68;95170.25;5050987;28;20228;-46
2023/09/06 09:54:42;;;;;;;9.95;5.05;;;;;;;24.78;57.04;95186.47;5050508;28;20265;-47
2023/09/06 09:57:11;;;;;;;7.80;6.13;;;;;;;24.88;57.20;95186.81;5050930;28;20195;-46
2023/09/06 09:59:40;;;;;;;6.72;6.05;;;;;;;25.01;56.78;95185.88;5050463;28;20278;-44
2023/09/06 10:02:15;;;;;;;5.32;4.75;;;;;;;25.03;56.66;95187.25;5050824;28;20633;-44
2023/09/06 10:04:44;;;;;;;5.63;4.97;;;;;;;24.83;56.02;95175.34;5050205;28;20191;-46
2023/09/06 10:07:14;;;;;;;8.18;4.75;;;;;;;24.92;56.39;95179.31;5050511;28;20191;-45
2023/09/06 10:09:42;;;;;;;9.48;5.78;;;;;;;24.98;56.54;95181.06;5049965;28;20266;-52
2023/09/06 10:12:11;;;;;;;7.40;5.68;;;;;;;25.11;56.30;95185.41;5050137;28;20285;-46
2023/09/06 10:14:40;;;;;;;8.15;4.75;;;;;;;25.17;56.29;95172.28;5050122;28;20309;-45
2023/09/06 10:17:08;;;;;;;12.13;5.65;;;;;;;25.13;55.09;95171.09;5050556;28;20188;-46
2023/09/06 10:19:35;;;;;;;8.70;5.22;;;;;;;25.02;55.22;95175.19;5049380;28;20226;-49
2023/09/06 10:22:06;;;;;;;7.63;5.60;;;;;;;24.98;55.81;95158.31;5032960;28;20194;-44
2023/09/06 10:24:35;;;;;;;6.05;5.07;;;;;;;24.96;55.27;95157.75;5050181;28;20195;-45
2023/09/06 10:27:03;;;;;;;5.47;4.97;;;;;;;24.90;55.62;95166.44;5050090;28;20191;-43
2023/09/06 10:29:31;;;;;;;9.60;6.13;;;;;;;25.00;55.97;95160.75;5049675;28;20226;-44
2023/09/06 10:32:03;;;;;;;7.93;5.18;;;;;;;25.00;56.83;95158.13;5050025;28;20202;-43
2023/09/06 10:34:33;;;;;;;12.35;5.88;;;;;;;25.05;56.30;95162.72;5049680;28;20696;-45
2023/09/06 10:37:03;;;;;;;8.40;5.88;;;;;;;24.98;56.14;95157.53;5049869;28;20632;-45
2023/09/06 10:39:31;;;;;;;7.43;5.53;;;;;;;24.88;56.48;95165.88;5049835;28;20234;-44
2023/09/06 10:42:17;;;;;;;5.78;5.22;;;;;;;24.90;56.70;95160.41;5049771;28;20198;-46
2023/09/06 10:45:10;;;;;;;8.63;5.28;;;;;;;24.89;56.50;95158.81;5049630;28;20186;-45
2023/09/06 10:47:38;;;;;;;8.18;5.55;;;;;;;24.82;54.94;95150.22;5050079;28;20237;-45
2023/09/06 10:50:09;;;;;;;9.15;5.50;;;;;;;24.90;54.83;95155.97;5050199;28;20262;-45
2023/09/06 10:52:44;;;;;;;6.43;5.82;;;;;;;24.87;54.92;95148.56;5049580;28;20187;-46
2023/09/06 10:55:21;;;;;;;8.75;6.32;;;;;;;24.86;55.29;95146.16;5049608;28;20224;-46
2023/09/06 10:57:50;;;;;;;14.45;5.65;;;;;;;24.83;56.03;95157.88;5049501;28;20187;-45
2023/09/06 11:00:25;;;;;;;5.65;5.15;;;;;;;24.90;55.72;95161.22;5049754;28;20265;-46
2023/09/06 11:03:14;;;;;;;8.48;5.43;;;;;;;24.92;54.37;95140.88;5049591;28;20195;-45
2023/09/06 11:05:43;;;;;;;10.95;5.70;;;;;;;25.02;54.34;95148.22;5049699;28;20222;-46
2023/09/06 11:08:21;;;;;;;8.13;5.70;;;;;;;25.03;54.19;95145.38;5049910;28;20191;-46
2023/09/06 11:10:50;;;;;;;6.25;5.65;;;;;;;25.08;54.78;95138.69;5049508;28;20274;-45
2023/09/06 11:13:16;;;;;;;6.50;5.78;;;;;;;25.11;54.90;95133.06;5049382;28;20206;-47
2023/09/06 11:15:43;;;;;;;8.73;6.13;;;;;;;25.18;54.77;95133.81;5049754;28;20226;-45
2023/09/06 11:18:10;;;;;;;8.98;5.65;;;;;;;25.22;54.53;95133.16;5049271;28;20302;-46
2023/09/06 11:20:39;;;;;;;6.95;5.50;;;;;;;25.15;54.45;95126.38;5049585;28;20191;-44
2023/09/06 11:23:05;;;;;;;8.32;5.60;;;;;;;25.10;54.68;95118.38;5049440;28;20225;-46
2023/09/06 11:25:33;;;;;;;7.57;5.45;;;;;;;25.11;56.01;95131.25;5049466;28;20210;-46
2023/09/06 11:28:14;;;;;;;8.63;7.03;;;;;;;25.10;56.40;95134.88;5049475;28;20202;-45
2023/09/06 11:30:42;;;;;;;11.23;5.00;;;;;;;25.08;57.26;95117.75;5049527;28;20222;-45
2023/09/06 11:33:11;;;;;;;8.15;5.57;;;;;;;25.19;57.84;95128.34;5052580;28;20179;-45
2023/09/06 11:35:46;;;;;;;6.43;5.57;;;;;;;25.27;57.56;95124.66;5053412;28;20218;-44
2023/09/06 11:38:16;;;;;;;10.40;5.53;;;;;;;25.44;56.80;95128.28;5053516;28;20208;-45
2023/09/06 11:40:44;;;;;;;10.77;5.53;;;;;;;25.39;56.89;95085.41;5053637;28;20199;-44
2023/09/06 11:43:13;;;;;;;7.82;5.90;;;;;;;25.67;56.14;95119.72;5053115;28;20283;-45